Time;durP1;ratioP1;P1;durP2;ratioP2;P2;SDS_P1;SDS_P2;PMS_P1;PMS_P2;Temp;Humidity;BMP_temperature;BMP_pressure;BME280_temperature;BME280_humidity;BME280_pressure;Samples;Min_cycle;Max_cycle;Signal;HPM_P1;HPM_P2
2023/07/28 00:01:34;;;;;;;82.57;52.42;;;19.80;87.50;;;;;;4928122;28;93560;-79
2023/07/28 00:04:01;;;;;;;82.18;52.67;;;19.90;86.00;;;;;;4933426;28;89434;-77
2023/07/28 00:06:26;;;;;;;81.95;52.60;;;19.80;89.00;;;;;;4929189;28;90197;-78
2023/07/28 00:08:52;;;;;;;82.30;52.35;;;19.80;86.50;;;;;;4930980;28;89484;-79
2023/07/28 00:11:17;;;;;;;81.75;52.35;;;19.80;86.60;;;;;;4930887;28;89868;-78
2023/07/28 00:13:43;;;;;;;83.03;52.78;;;19.90;87.50;;;;;;4932570;28;89368;-75
2023/07/28 00:16:09;;;;;;;83.88;52.45;;;19.80;87.10;;;;;;4928656;28;89757;-79
2023/07/28 00:18:35;;;;;;;81.68;52.45;;;19.80;86.60;;;;;;4931607;28;93163;-76
2023/07/28 00:21:01;;;;;;;82.07;52.47;;;19.80;86.60;;;;;;4935808;28;94040;-81
2023/07/28 00:23:28;;;;;;;81.70;52.45;;;19.80;86.20;;;;;;4937056;28;89443;-78
2023/07/28 00:25:53;;;;;;;81.50;52.33;;;19.80;86.00;;;;;;4937265;28;91708;-78
2023/07/28 00:28:19;;;;;;;81.82;52.30;;;19.80;85.70;;;;;;4934129;28;89176;-78
2023/07/28 00:30:48;;;;;;;82.00;52.40;;;19.80;87.50;;;;;;4935265;28;91399;-75
2023/07/28 00:33:14;;;;;;;82.90;52.33;;;19.80;86.50;;;;;;4938079;28;92480;-79
2023/07/28 00:35:39;;;;;;;82.20;52.60;;;19.80;85.60;;;;;;4935367;28;91412;-76
2023/07/28 00:38:05;;;;;;;82.10;52.45;;;19.80;88.40;;;;;;4930951;28;90019;-79
2023/07/28 00:40:30;;;;;;;82.07;52.42;;;19.80;88.20;;;;;;4933445;28;90493;-78
2023/07/28 00:42:56;;;;;;;81.75;52.33;;;19.80;87.00;;;;;;4936727;28;89630;-78
2023/07/28 00:45:22;;;;;;;81.78;52.15;;;19.80;86.10;;;;;;4937644;28;89886;-79
2023/07/28 00:47:47;;;;;;;83.10;52.42;;;19.80;86.20;;;;;;4933891;28;90619;-78
2023/07/28 00:50:13;;;;;;;82.13;52.55;;;19.80;88.20;;;;;;4936307;28;90264;-78
2023/07/28 00:52:39;;;;;;;82.18;52.35;;;19.80;86.30;;;;;;4939077;28;88489;-80
2023/07/28 00:55:06;;;;;;;81.40;52.15;;;19.80;87.90;;;;;;4941302;28;89497;-77
2023/07/28 00:57:33;;;;;;;81.75;52.42;;;19.80;85.40;;;;;;4934898;28;93858;-78
2023/07/28 00:59:59;;;;;;;83.20;52.33;;;19.80;87.30;;;;;;4935321;28;90768;-77
2023/07/28 01:02:25;;;;;;;81.60;52.25;;;19.80;88.10;;;;;;4937015;28;89293;-76
2023/07/28 01:04:51;;;;;;;82.15;52.20;;;19.80;85.90;;;;;;4940106;28;92327;-81
2023/07/28 01:07:36;;;;;;;82.88;52.33;;;19.80;86.20;;;;;;4936014;28;90310;-76
2023/07/28 01:10:28;;;;;;;83.03;52.63;;;19.80;88.10;;;;;;4942049;28;89256;-79
2023/07/28 01:12:53;;;;;;;82.00;52.60;;;19.80;87.60;;;;;;4932950;28;90735;-77
2023/07/28 01:15:19;;;;;;;82.78;52.22;;;19.80;89.60;;;;;;4938759;28;90038;-77
2023/07/28 01:17:45;;;;;;;82.53;52.58;;;19.80;87.30;;;;;;4942236;28;90962;-77
2023/07/28 01:20:11;;;;;;;81.90;52.33;;;19.80;88.70;;;;;;4941690;28;89157;-74
2023/07/28 01:22:52;;;;;;;82.22;52.60;;;19.80;87.20;;;;;;4942325;28;89527;-76
2023/07/28 01:25:17;;;;;;;81.82;52.33;;;19.80;86.00;;;;;;4935793;28;90563;-78
2023/07/28 01:27:44;;;;;;;83.30;52.60;;;19.80;88.40;;;;;;4935305;28;91027;-79
2023/07/28 01:30:11;;;;;;;82.15;52.45;;;19.80;86.80;;;;;;4919585;28;89556;-80
2023/07/28 01:32:36;;;;;;;82.32;52.22;;;19.80;86.30;;;;;;4933711;28;89525;-76
2023/07/28 01:35:03;;;;;;;81.93;52.53;;;19.80;87.00;;;;;;4937832;28;90579;-80
2023/07/28 01:37:29;;;;;;;83.15;52.53;;;19.80;86.50;;;;;;4931661;28;93487;-81
2023/07/28 01:39:57;;;;;;;82.45;52.65;;;19.80;88.80;;;;;;4925889;28;91454;-79
2023/07/28 01:42:23;;;;;;;81.85;52.58;;;19.80;86.40;;;;;;4934255;28;91916;-80
2023/07/28 01:44:48;;;;;;;82.13;52.75;;;19.80;87.00;;;;;;4932803;28;90530;-74
2023/07/28 01:47:14;;;;;;;81.93;52.55;;;19.80;87.90;;;;;;4930758;28;90957;-79
2023/07/28 01:49:40;;;;;;;82.90;52.53;;;19.80;89.70;;;;;;4936043;28;90866;-79
2023/07/28 01:52:05;;;;;;;82.57;52.47;;;19.80;86.80;;;;;;4936593;28;93431;-81
2023/07/28 01:54:31;;;;;;;82.60;52.33;;;19.80;85.90;;;;;;4931222;28;90370;-81
2023/07/28 01:56:56;;;;;;;82.47;52.42;;;19.80;87.50;;;;;;4930995;28;91438;-77
2023/07/28 01:59:22;;;;;;;82.05;52.60;;;19.80;86.60;;;;;;4934986;28;89556;-76
2023/07/28 02:01:48;;;;;;;81.97;52.55;;;19.80;85.90;;;;;;4934098;28;89371;-76
2023/07/28 02:04:13;;;;;;;81.55;52.42;;;19.80;87.30;;;;;;4934800;28;90120;-79
2023/07/28 02:06:39;;;;;;;81.78;52.38;;;19.80;87.50;;;;;;4931521;28;89420;-77
2023/07/28 02:09:05;;;;;;;81.93;52.60;;;19.80;89.90;;;;;;4932620;28;93533;-80
2023/07/28 02:11:30;;;;;;;81.95;52.53;;;19.80;87.00;;;;;;4934423;28;89509;-77
2023/07/28 02:13:56;;;;;;;81.60;52.42;;;19.80;85.60;;;;;;4928507;28;91211;-78
2023/07/28 02:16:21;;;;;;;81.93;52.60;;;19.70;86.10;;;;;;4928463;28;92414;-76
2023/07/28 02:18:47;;;;;;;81.70;52.40;;;19.80;86.80;;;;;;4934425;28;90239;-76
2023/07/28 02:21:13;;;;;;;82.15;52.45;;;19.80;87.10;;;;;;4935230;28;89198;-76
2023/07/28 02:23:38;;;;;;;82.32;52.53;;;19.80;88.20;;;;;;4929851;28;92819;-79
2023/07/28 02:26:04;;;;;;;82.40;52.33;;;19.70;87.70;;;;;;4928732;28;89472;-76
2023/07/28 02:28:29;;;;;;;82.47;52.50;;;19.80;90.00;;;;;;4914148;28;93904;-77
2023/07/28 02:30:55;;;;;;;82.22;52.55;;;19.70;87.50;;;;;;4933700;28;88765;-81
2023/07/28 02:33:20;;;;;;;81.65;52.35;;;19.80;87.10;;;;;;4930605;28;93942;-76
2023/07/28 02:35:46;;;;;;;81.95;52.42;;;19.70;87.30;;;;;;4932861;28;89608;-77
2023/07/28 02:38:12;;;;;;;81.53;52.53;;;19.70;88.00;;;;;;4928180;28;91637;-75
2023/07/28 02:40:37;;;;;;;81.57;52.40;;;19.80;88.10;;;;;;4936759;28;91701;-77
2023/07/28 02:43:03;;;;;;;81.68;52.45;;;19.80;88.60;;;;;;4931075;28;91716;-77
2023/07/28 02:45:28;;;;;;;81.75;52.33;;;19.70;89.00;;;;;;4933245;28;89530;-76
2023/07/28 02:47:54;;;;;;;82.07;52.65;;;19.70;88.10;;;;;;4930344;28;89864;-79
2023/07/28 02:50:19;;;;;;;81.20;52.05;;;19.70;88.00;;;;;;4918104;28;89885;-80
2023/07/28 02:52:45;;;;;;;81.68;52.40;;;19.70;86.90;;;;;;4931419;28;91541;-75
2023/07/28 02:55:11;;;;;;;81.70;52.50;;;19.70;86.60;;;;;;4935016;28;92690;-78
2023/07/28 02:57:37;;;;;;;81.55;52.42;;;19.70;90.00;;;;;;4931363;28;91455;-80
2023/07/28 03:00:05;;;;;;;82.45;52.28;;;19.70;86.70;;;;;;4933849;28;89384;-80
2023/07/28 03:02:31;;;;;;;82.10;52.42;;;19.70;87.10;;;;;;4929632;28;95619;-81
2023/07/28 03:04:56;;;;;;;81.53;52.15;;;19.70;87.00;;;;;;4914404;28;90163;-75
2023/07/28 03:07:22;;;;;;;81.30;52.15;;;19.70;85.90;;;;;;4930548;28;90364;-78
2023/07/28 03:09:47;;;;;;;81.85;52.47;;;19.70;86.80;;;;;;4932979;28;89585;-78
2023/07/28 03:12:13;;;;;;;81.97;52.22;;;19.70;88.00;;;;;;4931209;28;89881;-80
2023/07/28 03:14:39;;;;;;;81.55;52.22;;;19.70;86.30;;;;;;4933095;28;89425;-76
2023/07/28 03:17:04;;;;;;;83.00;52.53;;;19.70;86.00;;;;;;4930033;28;90586;-78
2023/07/28 03:19:30;;;;;;;81.18;52.13;;;19.70;86.80;;;;;;4916860;28;88525;-77
2023/07/28 03:21:55;;;;;;;81.50;52.22;;;19.70;86.00;;;;;;4931435;28;90271;-79
2023/07/28 03:24:21;;;;;;;81.38;52.30;;;19.80;86.90;;;;;;4925304;28;90013;-79
2023/07/28 03:26:47;;;;;;;81.68;52.35;;;19.70;86.20;;;;;;4930918;28;91106;-78
2023/07/28 03:29:12;;;;;;;81.63;52.35;;;19.70;86.60;;;;;;4930986;28;89459;-76
2023/07/28 03:31:38;;;;;;;81.50;52.33;;;19.70;86.00;;;;;;4929548;28;90680;-80
2023/07/28 03:34:03;;;;;;;81.40;52.05;;;19.70;89.50;;;;;;4930334;28;92800;-80
2023/07/28 03:36:29;;;;;;;81.93;52.00;;;19.70;86.00;;;;;;4929948;28;93764;-78
2023/07/28 03:38:55;;;;;;;81.28;52.17;;;19.70;86.10;;;;;;4929347;28;89833;-80
2023/07/28 03:41:20;;;;;;;81.93;52.17;;;19.70;85.70;;;;;;4914171;28;93869;-77
2023/07/28 03:43:46;;;;;;;81.63;52.38;;;19.70;86.10;;;;;;4933249;28;90090;-79
2023/07/28 03:46:12;;;;;;;81.43;52.22;;;19.70;87.80;;;;;;4929745;28;90463;-78
2023/07/28 03:48:37;;;;;;;81.13;52.13;;;19.70;85.60;;;;;;4916002;28;89737;-79
2023/07/28 03:51:03;;;;;;;80.93;52.00;;;19.70;85.80;;;;;;4933690;28;93610;-80
2023/07/28 03:53:29;;;;;;;83.47;52.22;;;19.70;85.60;;;;;;4931799;28;90120;-80
2023/07/28 03:55:57;;;;;;;80.93;51.85;;;19.70;86.70;;;;;;4929917;28;89497;-77
2023/07/28 03:58:24;;;;;;;81.30;52.15;;;19.70;85.80;;;;;;4931085;28;91591;-81
2023/07/28 04:00:52;;;;;;;80.90;52.05;;;19.70;85.60;;;;;;4933907;28;89374;-78
2023/07/28 04:03:17;;;;;;;81.00;51.95;;;19.70;85.70;;;;;;4930951;28;89776;-75
2023/07/28 04:05:43;;;;;;;81.43;52.20;;;19.70;86.00;;;;;;4933237;28;90930;-79
2023/07/28 04:08:08;;;;;;;81.25;52.00;;;19.70;86.70;;;;;;4932124;28;88721;-74
2023/07/28 04:10:34;;;;;;;81.40;52.10;;;19.70;86.20;;;;;;4913804;28;90013;-77
2023/07/28 04:12:59;;;;;;;81.30;52.10;;;19.70;87.10;;;;;;4935999;28;89603;-76
2023/07/28 04:15:25;;;;;;;82.28;52.25;;;19.70;85.90;;;;;;4928228;28;90999;-78
2023/07/28 04:17:50;;;;;;;81.70;52.13;;;19.70;86.30;;;;;;4932399;28;89952;-75
2023/07/28 04:20:16;;;;;;;81.30;51.95;;;19.70;85.40;;;;;;4930170;28;96028;-78
2023/07/28 04:22:42;;;;;;;81.28;52.13;;;19.70;85.70;;;;;;4931389;28;90821;-78
2023/07/28 04:25:07;;;;;;;81.07;52.00;;;19.70;87.10;;;;;;4930251;28;89357;-78
2023/07/28 04:27:33;;;;;;;81.78;52.33;;;19.70;85.60;;;;;;4936485;28;89839;-79
2023/07/28 04:29:59;;;;;;;81.40;52.13;;;19.70;85.70;;;;;;4934739;28;90578;-79
2023/07/28 04:32:25;;;;;;;81.43;52.15;;;19.70;85.50;;;;;;4930375;28;93615;-79
2023/07/28 04:34:51;;;;;;;81.35;52.15;;;19.70;85.60;;;;;;4930649;28;90210;-79
2023/07/28 04:37:17;;;;;;;82.72;52.42;;;19.70;85.30;;;;;;4933319;28;89513;-78
2023/07/28 04:39:43;;;;;;;81.38;52.22;;;19.70;86.10;;;;;;4933794;28;90370;-80
2023/07/28 04:42:09;;;;;;;81.43;52.22;;;19.70;87.50;;;;;;4931941;28;90373;-78
2023/07/28 04:44:37;;;;;;;81.38;52.03;;;19.70;86.80;;;;;;4932057;28;89844;-79
2023/07/28 04:47:03;;;;;;;81.80;52.35;;;19.80;85.80;;;;;;4933030;28;89702;-77
2023/07/28 04:49:29;;;;;;;81.18;52.08;;;19.80;86.50;;;;;;4936527;28;89568;-78
2023/07/28 04:51:54;;;;;;;81.47;52.05;;;19.70;85.10;;;;;;4928189;28;91341;-78
2023/07/28 04:54:20;;;;;;;81.60;52.17;;;19.80;85.30;;;;;;4934439;28;89019;-76
2023/07/28 04:56:46;;;;;;;80.90;52.13;;;19.80;85.90;;;;;;4934616;28;88696;-77
2023/07/28 04:59:11;;;;;;;81.18;52.05;;;19.70;85.80;;;;;;4939630;28;89587;-76
2023/07/28 05:01:37;;;;;;;81.45;52.22;;;19.80;85.20;;;;;;4934800;28;89748;-78
2023/07/28 05:04:03;;;;;;;81.18;51.88;;;19.80;85.30;;;;;;4928914;28;91128;-80
2023/07/28 05:06:28;;;;;;;81.55;52.20;;;19.80;85.70;;;;;;4936490;28;90325;-77
2023/07/28 05:08:54;;;;;;;81.40;52.30;;;19.80;87.10;;;;;;4929644;28;89824;-79
2023/07/28 05:11:19;;;;;;;81.65;52.20;;;19.80;86.70;;;;;;4936949;28;92249;-78
2023/07/28 05:13:45;;;;;;;81.57;52.25;;;19.80;85.50;;;;;;4935778;28;90048;-79
2023/07/28 05:16:10;;;;;;;82.63;52.40;;;19.80;88.00;;;;;;4934215;28;90103;-77
2023/07/28 05:18:37;;;;;;;81.55;52.25;;;19.80;87.10;;;;;;4930991;28;89359;-77
2023/07/28 05:21:02;;;;;;;81.13;52.03;;;19.90;86.20;;;;;;4937385;28;89061;-79
2023/07/28 05:23:28;;;;;;;81.85;52.38;;;19.90;85.30;;;;;;4929566;28;89681;-78
2023/07/28 05:25:53;;;;;;;81.65;52.45;;;19.90;85.00;;;;;;4935367;28;90680;-78
2023/07/28 05:28:19;;;;;;;81.53;52.20;;;19.90;85.50;;;;;;4932603;28;93342;-78
2023/07/28 05:30:45;;;;;;;81.43;52.15;;;19.90;85.20;;;;;;4931809;28;89864;-79
2023/07/28 05:33:10;;;;;;;82.30;52.20;;;19.90;85.10;;;;;;4932087;28;91304;-78
2023/07/28 05:35:36;;;;;;;81.72;52.35;;;19.90;85.70;;;;;;4934237;28;93408;-80
2023/07/28 05:38:01;;;;;;;81.93;52.35;;;19.90;87.00;;;;;;4933812;28;91113;-80
2023/07/28 05:40:27;;;;;;;81.90;52.50;;;19.90;87.00;;;;;;4936477;28;94749;-79
2023/07/28 05:42:52;;;;;;;82.07;52.65;;;19.90;85.80;;;;;;4931628;28;89637;-80
2023/07/28 05:45:18;;;;;;;81.80;52.42;;;19.90;85.30;;;;;;4933019;28;90727;-77
2023/07/28 05:47:44;;;;;;;81.97;52.47;;;19.90;86.10;;;;;;4933643;28;89925;-78
2023/07/28 05:50:10;;;;;;;82.10;52.55;;;20.00;87.80;;;;;;4936631;28;90200;-79
2023/07/28 05:52:35;;;;;;;82.13;52.33;;;20.00;85.90;;;;;;4916890;28;90611;-75
2023/07/28 05:55:01;;;;;;;82.03;52.35;;;20.00;85.80;;;;;;4937496;28;89033;-77
2023/07/28 05:57:26;;;;;;;81.85;52.38;;;20.00;87.30;;;;;;4935657;28;90496;-77
2023/07/28 05:59:52;;;;;;;81.75;52.30;;;20.00;85.50;;;;;;4934905;28;91058;-75
2023/07/28 06:02:17;;;;;;;81.78;52.38;;;20.00;85.40;;;;;;4932886;28;89860;-77
2023/07/28 06:04:43;;;;;;;81.88;52.25;;;20.10;87.00;;;;;;4934839;28;89814;-75
2023/07/28 06:07:10;;;;;;;82.35;52.33;;;20.10;87.60;;;;;;4934912;28;91510;-76
2023/07/28 06:09:35;;;;;;;81.68;52.22;;;20.00;87.70;;;;;;4935706;28;91839;-78
2023/07/28 06:12:01;;;;;;;81.68;52.35;;;20.10;84.90;;;;;;4935377;28;91084;-78
2023/07/28 06:14:26;;;;;;;81.20;51.90;;;20.10;85.20;;;;;;4930329;28;93158;-75
2023/07/28 06:16:52;;;;;;;82.57;52.33;;;20.10;84.90;;;;;;4929268;28;92449;-73
2023/07/28 06:19:23;;;;;;;82.13;52.30;;;20.10;85.90;;;;;;4938896;28;91147;-79
2023/07/28 06:21:50;;;;;;;;;;;20.10;84.90;;;;;;4934679;28;89732;-73
2023/07/28 06:24:15;;;;;;;81.63;52.25;;;20.10;84.40;;;;;;4938513;28;89522;-78
2023/07/28 06:26:41;;;;;;;82.25;52.30;;;20.10;84.10;;;;;;4939164;28;93042;-74
2023/07/28 06:29:07;;;;;;;83.00;52.40;;;20.20;84.10;;;;;;4942181;28;90572;-74
2023/07/28 06:31:32;;;;;;;82.05;52.45;;;20.10;84.00;;;;;;4934899;28;90892;-80
2023/07/28 06:33:58;;;;;;;82.60;52.45;;;20.20;84.20;;;;;;4919475;28;90924;-76
2023/07/28 06:36:24;;;;;;;82.05;52.40;;;20.20;84.00;;;;;;4928721;28;91495;-75
2023/07/28 06:38:51;;;;;;;83.28;52.50;;;20.20;84.30;;;;;;4939638;28;89317;-77
2023/07/28 06:41:16;;;;;;;83.03;52.55;;;20.20;84.00;;;;;;4935711;28;90429;-74
2023/07/28 06:43:42;;;;;;;82.13;52.38;;;20.20;83.60;;;;;;4940881;28;89824;-77
2023/07/28 06:46:08;;;;;;;82.13;52.53;;;20.20;83.60;;;;;;4936445;28;89632;-76
2023/07/28 06:48:33;;;;;;;82.60;52.65;;;20.20;84.30;;;;;;4927322;28;92857;-74
2023/07/28 06:50:59;;;;;;;82.07;52.42;;;20.30;83.90;;;;;;4926775;28;95025;-75
2023/07/28 06:53:24;;;;;;;82.85;52.58;;;20.30;83.60;;;;;;4925705;28;92584;-74
2023/07/28 06:55:50;;;;;;;82.82;52.63;;;20.30;83.50;;;;;;4935800;28;89938;-75
2023/07/28 06:58:16;;;;;;;82.97;52.75;;;20.30;83.20;;;;;;4931263;28;90845;-79
2023/07/28 07:00:42;;;;;;;82.55;52.70;;;20.40;83.30;;;;;;4920364;28;92290;-75
2023/07/28 07:03:09;;;;;;;83.57;52.65;;;20.30;83.30;;;;;;4932805;28;89666;-75
2023/07/28 07:05:34;;;;;;;82.68;52.65;;;20.40;83.70;;;;;;4929573;28;94029;-79
2023/07/28 07:08:01;;;;;;;82.75;52.42;;;20.40;83.00;;;;;;4927741;28;91946;-75
2023/07/28 07:10:27;;;;;;;85.60;53.03;;;20.40;83.20;;;;;;4923893;28;93318;-76
2023/07/28 07:12:52;;;;;;;83.85;52.58;;;20.40;83.40;;;;;;4936588;28;89569;-78
2023/07/28 07:15:18;;;;;;;85.03;52.58;;;20.40;84.00;;;;;;4917191;28;91966;-78
2023/07/28 07:17:44;;;;;;;83.50;52.80;;;20.40;82.90;;;;;;4926098;28;91586;-77
2023/07/28 07:20:10;;;;;;;83.20;52.65;;;20.40;83.20;;;;;;4929404;28;89887;-75
2023/07/28 07:22:36;;;;;;;84.07;52.75;;;20.50;84.60;;;;;;4929560;28;88836;-72
2023/07/28 07:25:07;;;;;;;83.03;52.58;;;20.50;86.50;;;;;;4924752;28;90783;-70
2023/07/28 07:27:32;;;;;;;82.93;52.50;;;20.60;91.50;;;;;;4928343;28;94746;-71
2023/07/28 07:29:58;;;;;;;83.80;52.95;;;20.60;92.40;;;;;;4926483;28;91586;-72
2023/07/28 07:32:23;;;;;;;83.05;52.65;;;20.60;91.40;;;;;;4928746;28;90238;-72
2023/07/28 07:34:49;;;;;;;83.97;52.67;;;20.70;91.70;;;;;;4932606;28;89755;-71
2023/07/28 07:37:15;;;;;;;84.75;52.97;;;20.70;91.90;;;;;;4926653;28;90735;-70
2023/07/28 07:39:41;;;;;;;83.43;52.90;;;20.80;91.60;;;;;;4929273;28;90340;-74
2023/07/28 07:42:09;;;;;;;84.70;53.08;;;20.80;92.10;;;;;;4931834;28;92727;-73
2023/07/28 07:44:35;;;;;;;84.03;52.75;;;20.90;91.50;;;;;;4926029;28;89439;-73
2023/07/28 07:47:10;;;;;;;84.22;52.90;;;21.00;90.90;;;;;;4929708;28;89668;-72
2023/07/28 07:49:36;;;;;;;84.00;53.03;;;21.00;91.40;;;;;;4924568;28;89581;-71
2023/07/28 07:52:02;;;;;;;83.88;53.00;;;21.00;91.20;;;;;;4929966;28;93428;-71
2023/07/28 07:54:27;;;;;;;84.20;53.10;;;21.00;90.70;;;;;;4928973;28;92088;-71
2023/07/28 07:56:53;;;;;;;83.00;52.92;;;21.10;90.60;;;;;;4928246;28;90929;-74
2023/07/28 07:59:18;;;;;;;83.13;52.90;;;21.10;90.00;;;;;;4922706;28;90999;-72
2023/07/28 08:01:44;;;;;;;85.80;53.03;;;21.10;91.00;;;;;;4924996;28;92361;-73
2023/07/28 08:04:10;;;;;;;83.22;53.08;;;21.10;90.70;;;;;;4924297;28;90567;-71
2023/07/28 08:06:36;;;;;;;84.78;53.22;;;21.10;90.80;;;;;;4925658;28;90454;-73
2023/07/28 08:09:02;;;;;;;85.20;53.20;;;21.10;91.00;;;;;;4929064;28;91211;-71
2023/07/28 08:11:28;;;;;;;83.47;53.03;;;21.00;90.80;;;;;;4928536;28;89501;-74
2023/07/28 08:13:55;;;;;;;82.72;52.85;;;21.10;91.20;;;;;;4929434;28;92636;-74
2023/07/28 08:16:20;;;;;;;83.57;53.13;;;21.10;91.80;;;;;;4929487;28;90221;-75
2023/07/28 08:18:46;;;;;;;85.65;52.95;;;21.10;91.40;;;;;;4926157;28;90772;-73
2023/07/28 08:21:12;;;;;;;85.25;53.05;;;21.10;90.30;;;;;;4930195;28;93280;-75
2023/07/28 08:23:37;;;;;;;82.78;52.65;;;21.10;89.90;;;;;;4931615;28;92176;-73
2023/07/28 08:26:03;;;;;;;82.28;52.65;;;21.00;89.70;;;;;;4930758;28;89003;-72
2023/07/28 08:28:29;;;;;;;82.32;52.53;;;21.00;89.30;;;;;;4929069;28;91416;-75
2023/07/28 08:30:59;;;;;;;84.95;53.05;;;21.00;90.70;;;;;;4925139;28;89746;-74
2023/07/28 08:33:24;;;;;;;84.43;53.03;;;21.00;90.40;;;;;;4929187;28;93167;-78
2023/07/28 08:35:50;;;;;;;83.68;53.05;;;21.10;90.10;;;;;;4930039;28;89032;-75
2023/07/28 08:38:16;;;;;;;82.97;52.95;;;21.10;89.60;;;;;;4935655;28;89567;-74
2023/07/28 08:40:44;;;;;;;82.47;52.83;;;21.10;90.40;;;;;;4917096;28;93409;-76
2023/07/28 08:43:09;;;;;;;83.38;53.13;;;21.10;88.60;;;;;;4932958;28;92833;-76
2023/07/28 08:45:35;;;;;;;86.95;53.17;;;21.10;89.80;;;;;;4914940;28;93645;-77
2023/07/28 08:48:01;;;;;;;87.28;53.08;;;21.20;89.40;;;;;;4936658;28;90478;-78
2023/07/28 08:50:26;;;;;;;84.95;53.30;;;21.20;89.90;;;;;;4942013;28;90694;-79
2023/07/28 08:52:52;;;;;;;86.07;53.22;;;21.30;89.40;;;;;;4940728;28;91758;-76
2023/07/28 08:55:17;;;;;;;84.20;53.25;;;21.40;88.60;;;;;;4929426;28;92361;-79
2023/07/28 08:57:43;;;;;;;84.68;53.60;;;21.40;88.60;;;;;;4928102;28;90808;-78
2023/07/28 09:00:13;;;;;;;85.05;53.63;;;21.50;87.90;;;;;;4931268;28;91835;-74
2023/07/28 09:02:38;;;;;;;83.90;53.15;;;21.50;88.70;;;;;;4935414;28;92464;-82
2023/07/28 09:05:05;;;;;;;84.15;53.45;;;21.40;88.60;;;;;;4928641;28;91150;-76
2023/07/28 09:07:37;;;;;;;83.97;53.50;;;21.30;89.00;;;;;;4930442;28;95229;-74
2023/07/28 09:10:03;;;;;;;83.63;53.33;;;21.30;88.80;;;;;;4931024;28;90319;-75
2023/07/28 09:12:32;;;;;;;88.00;53.58;;;21.30;89.20;;;;;;4934978;28;90162;-77
2023/07/28 09:14:58;;;;;;;83.80;53.22;;;21.30;88.50;;;;;;4930546;28;89542;-76
2023/07/28 09:17:24;;;;;;;86.13;53.33;;;21.20;89.00;;;;;;4928193;28;90295;-76
2023/07/28 09:19:53;;;;;;;85.45;53.30;;;21.20;89.80;;;;;;4930934;28;89421;-73
2023/07/28 09:22:20;;;;;;;83.72;53.20;;;21.20;89.30;;;;;;4931390;28;91567;-74
2023/07/28 09:24:47;;;;;;;85.93;53.38;;;21.20;88.70;;;;;;4926133;28;88648;-72
2023/07/28 09:27:21;;;;;;;84.55;53.45;;;21.30;88.50;;;;;;4934730;28;90634;-71
2023/07/28 09:29:51;;;;;;;86.15;53.75;;;21.50;88.10;;;;;;4926195;28;89752;-72
2023/07/28 09:32:32;;;;;;;87.10;53.70;;;21.70;86.90;;;;;;4927134;28;92752;-72
2023/07/28 09:35:09;;;;;;;86.25;53.47;;;21.80;88.20;;;;;;4934643;28;89813;-71
2023/07/28 09:37:41;;;;;;;85.65;53.47;;;21.80;86.50;;;;;;4914878;28;89547;-75
2023/07/28 09:40:13;;;;;;;;;;;21.60;87.10;;;;;;4889840;28;89636;-72
2023/07/28 09:42:49;;;;;;;87.25;53.55;;;21.60;87.00;;;;;;4892241;28;92232;-74
2023/07/28 09:45:16;;;;;;;86.05;53.53;;;21.60;86.60;;;;;;4885265;28;91974;-72
2023/07/28 09:47:45;;;;;;;88.35;54.10;;;21.60;85.80;;;;;;4896367;28;89816;-73
2023/07/28 09:50:14;;;;;;;88.07;54.08;;;21.80;86.10;;;;;;4895820;28;89576;-75
2023/07/28 09:52:43;;;;;;;85.95;54.05;;;21.90;85.40;;;;;;4890110;28;91328;-74
2023/07/28 09:55:12;;;;;;;85.95;54.15;;;22.00;85.00;;;;;;4889537;28;90561;-74
2023/07/28 09:57:45;;;;;;;86.75;54.22;;;22.00;85.00;;;;;;4909862;28;90989;-74
2023/07/28 10:00:13;;;;;;;89.28;54.20;;;22.00;85.30;;;;;;4895971;28;90705;-73
2023/07/28 10:02:40;;;;;;;87.88;54.60;;;22.10;84.10;;;;;;4891683;28;89300;-79
2023/07/28 10:05:10;;;;;;;90.72;54.80;;;22.30;84.20;;;;;;4887794;28;91155;-74
2023/07/28 10:07:40;;;;;;;87.45;54.15;;;22.30;84.20;;;;;;4888486;28;91131;-75
2023/07/28 10:10:08;;;;;;;85.00;54.08;;;22.20;84.10;;;;;;4893298;28;92555;-74
2023/07/28 10:12:44;;;;;;;86.00;53.92;;;22.00;83.00;;;;;;4894553;28;89891;-74
2023/07/28 10:15:15;;;;;;;85.50;53.85;;;22.00;86.10;;;;;;4892228;28;88902;-77
2023/07/28 10:17:43;;;;;;;;;;;21.90;85.00;;;;;;4889501;28;90721;-79
2023/07/28 10:20:28;;;;;;;84.25;53.53;;;21.90;85.20;;;;;;4894824;28;89876;-75
2023/07/28 10:22:53;;;;;;;86.55;53.55;;;21.90;84.70;;;;;;4889424;28;91930;-75
2023/07/28 10:25:24;;;;;;;85.97;53.65;;;21.90;84.50;;;;;;4892510;28;90433;-74
2023/07/28 10:27:51;;;;;;;86.88;53.92;;;22.00;86.20;;;;;;4889613;28;89276;-77
2023/07/28 10:30:16;;;;;;;87.03;54.42;;;22.10;85.80;;;;;;4908193;28;89646;-76
2023/07/28 10:32:44;;;;;;;86.47;54.30;;;22.40;86.10;;;;;;4892408;28;92427;-74
2023/07/28 10:35:13;;;;;;;85.55;54.05;;;22.40;82.80;;;;;;4889202;28;89646;-77
2023/07/28 10:37:39;;;;;;;86.47;54.22;;;22.50;82.40;;;;;;4903957;28;90361;-75
2023/07/28 10:40:34;;;;;;;86.95;54.08;;;22.50;82.20;;;;;;4892830;28;89692;-74
2023/07/28 10:43:02;;;;;;;86.03;54.17;;;22.50;81.90;;;;;;4887064;28;89256;-77
2023/07/28 10:45:29;;;;;;;88.18;54.50;;;22.60;80.90;;;;;;4906749;28;91046;-75
2023/07/28 10:48:03;;;;;;;87.55;54.22;;;22.50;79.70;;;;;;4905668;28;90187;-75
2023/07/28 10:50:32;;;;;;;86.65;54.42;;;22.60;80.10;;;;;;4892903;28;90641;-76
2023/07/28 10:52:59;;;;;;;87.82;54.40;;;22.70;80.60;;;;;;4888850;28;93402;-74
2023/07/28 10:55:27;;;;;;;89.03;54.65;;;22.80;80.50;;;;;;4888321;28;92862;-75
2023/07/28 10:57:54;;;;;;;87.25;54.42;;;22.80;81.00;;;;;;4893329;28;89372;-76
2023/07/28 11:00:21;;;;;;;87.35;54.35;;;22.80;80.80;;;;;;4911431;28;89450;-77
2023/07/28 11:02:53;;;;;;;86.30;54.25;;;22.80;78.10;;;;;;4897557;28;89638;-76
2023/07/28 11:05:30;;;;;;;87.25;54.83;;;22.80;79.50;;;;;;4895820;28;89308;-76
2023/07/28 11:07:59;;;;;;;88.53;54.67;;;22.80;79.50;;;;;;4883821;28;91615;-75
2023/07/28 11:10:29;;;;;;;87.38;54.47;;;22.90;80.20;;;;;;4875213;28;89214;-74
2023/07/28 11:13:02;;;;;;;86.70;54.45;;;22.90;79.80;;;;;;4890938;28;90604;-75
2023/07/28 11:15:28;;;;;;;87.80;54.67;;;23.00;80.40;;;;;;4897095;28;91490;-75
2023/07/28 11:17:55;;;;;;;88.72;54.42;;;22.90;78.10;;;;;;4887599;28;89137;-73
2023/07/28 11:20:30;;;;;;;89.00;54.65;;;22.90;78.10;;;;;;4894332;28;89300;-76
2023/07/28 11:22:59;;;;;;;87.05;54.25;;;22.90;78.30;;;;;;4872198;28;89373;-76
2023/07/28 11:25:27;;;;;;;86.55;54.63;;;23.00;78.90;;;;;;4901279;28;91696;-76
2023/07/28 11:27:55;;;;;;;88.97;54.55;;;23.00;79.60;;;;;;4902920;28;93768;-73
2023/07/28 11:30:22;;;;;;;87.22;54.92;;;23.10;79.20;;;;;;4886736;28;89116;-74
2023/07/28 11:32:49;;;;;;;88.80;54.53;;;23.20;78.20;;;;;;4901699;28;90528;-74
2023/07/28 11:35:18;;;;;;;87.63;54.17;;;23.10;76.30;;;;;;4888792;28;90784;-75
2023/07/28 11:37:47;;;;;;;86.43;54.60;;;23.10;76.20;;;;;;4907269;28;91342;-75
2023/07/28 11:40:15;;;;;;;87.55;54.53;;;23.20;76.00;;;;;;4924523;28;89753;-75
2023/07/28 11:42:45;;;;;;;87.45;54.65;;;23.20;76.10;;;;;;4923696;28;90896;-75
2023/07/28 11:45:13;;;;;;;86.60;54.37;;;23.20;75.00;;;;;;4924830;28;93151;-74
2023/07/28 11:47:39;;;;;;;87.28;54.50;;;23.20;75.40;;;;;;4929915;28;90700;-76
2023/07/28 11:50:04;;;;;;;86.38;54.60;;;23.30;75.20;;;;;;4929925;28;89899;-75
2023/07/28 11:52:32;;;;;;;98.70;55.33;;;23.30;75.50;;;;;;4924245;28;89431;-75
2023/07/28 11:55:02;;;;;;;90.90;55.22;;;23.40;76.50;;;;;;4919369;28;91466;-75
2023/07/28 11:57:32;;;;;;;88.57;54.90;;;23.40;76.30;;;;;;4931923;28;89326;-75
2023/07/28 12:00:02;;;;;;;87.88;54.67;;;23.30;77.40;;;;;;4931523;28;90788;-76
2023/07/28 12:02:31;;;;;;;89.18;54.95;;;23.30;79.00;;;;;;4924404;28;91929;-74
2023/07/28 12:04:58;;;;;;;94.80;56.65;;;23.40;75.70;;;;;;4922978;28;89799;-75
2023/07/28 12:07:33;;;;;;;89.45;55.25;;;23.50;78.50;;;;;;4925370;28;91492;-74
2023/07/28 12:10:10;;;;;;;92.07;55.85;;;23.50;76.80;;;;;;4930921;28;90432;-73
2023/07/28 12:12:46;;;;;;;90.95;55.50;;;23.50;77.90;;;;;;4932077;28;89054;-74
2023/07/28 12:15:24;;;;;;;89.28;55.42;;;23.40;77.60;;;;;;4930321;28;89659;-74
2023/07/28 12:18:02;;;;;;;87.70;55.03;;;23.40;79.30;;;;;;4932243;28;92030;-73
2023/07/28 12:20:36;;;;;;;88.78;54.92;;;23.40;78.80;;;;;;4929229;28;91409;-74
2023/07/28 12:23:03;;;;;;;87.95;54.53;;;23.40;75.30;;;;;;4925824;28;89803;-74
2023/07/28 12:25:29;;;;;;;87.57;54.90;;;23.50;74.70;;;;;;4924246;28;89676;-76
2023/07/28 12:27:55;;;;;;;89.03;55.22;;;23.60;74.90;;;;;;4930391;28;90564;-78